• Join FlightAware (Why Join?)
  • Login
  • US Flag 
09:18PM EDT


 

Airport Tracker/Info


-or-


 

Live Flight TrackerFlight Track Log ✈ UAL1630 ✈ 30-Dec-2013 ✈ KCLE - KTPA

Flight Track Log - Related Links

Times and Time Zones

All times are in EST time to prevent confusion due to time zone crossing. See the UAL1630 flight status page for this flight to view local times or setup timezone preferences in your user account.

Time Position Orientation Groundspeed Altitude Reporting Facility
EST Latitude Longitude Course Direction KTS MPH feet Rate Location/Type
04:05PM 41.4244 -81.7858 61° Northeast 204 235 2,800  Level Cleveland Center
04:05PM 41.4264 -81.7811 61° Northeast 208 239 3,000 2,400 Climbing Cleveland Center
04:07PM 41.4283 -81.6906 88° East 230 265 5,800 2,520 Climbing Cleveland Center
04:08PM 41.3747 -81.6481 149° Southeast 260 299 8,300 2,460 Climbing Cleveland Center
04:09PM 41.3108 -81.7003 212° Southwest 263 303 11,000 1,980 Climbing Cleveland Center
04:10PM 41.2372 -81.7639 213° Southwest 319 367 12,500 2,040 Climbing Cleveland Center
04:11PM 41.1558 -81.8319 212° Southwest 344 396 15,300 2,340 Climbing Cleveland Center
04:12PM 41.0611 -81.9125 213° Southwest 363 418 17,400 2,160 Climbing Cleveland Center
04:13PM 40.9722 -81.9867 212° Southwest 373 429 19,800 1,800 Climbing Cleveland Center
04:19PM 40.3651 -82.4344 212° Southwest 381 438 30,600 1,800 Climbing FlightAware ADS-B
04:19PM 40.3082 -82.4755 209° Southwest 364 419 32,100 1,980 Climbing FlightAware ADS-B
04:20PM 40.2438 -82.5219 209° Southwest 351 404 33,300 1,260 Climbing FlightAware ADS-B
04:21PM 40.1879 -82.5621 209° Southwest 351 404 33,900 660 Climbing FlightAware ADS-B
04:21PM 40.1807 -82.5671 208° Southwest 371 427 34,000 120 Climbing FlightAware ADS-B
04:22PM 40.1203 -82.5843 192° South 407 468 34,000  Level FlightAware ADS-B
04:22PM 40.0422 -82.5736 174° South 431 496 34,000  Level FlightAware ADS-B
04:23PM 39.9428 -82.5593 174° South 432 497 34,000  Level FlightAware ADS-B
04:24PM 39.8426 -82.5460 174° South 433 498 34,000  Level FlightAware ADS-B
04:26PM 39.6381 -82.5179 174° South 433 498 34,000  Level FlightAware ADS-B (KPMH)
04:27PM 39.5166 -82.5016 174° South 427 491 34,000  Level FlightAware ADS-B (KPMH)
04:28PM 39.3203 -82.4745 174° South 424 488 34,000  Level FlightAware ADS-B (KPMH)
04:31PM 39.0134 -82.4335 174° South 415 478 34,000  Level FlightAware ADS-B (KPMH)
04:32PM 38.8758 -82.4136 174° South 413 475 34,000  Level Indianapolis Center
04:33PM 38.7628 -82.3997 175° South 410 472 34,000  Level Indianapolis Center
04:34PM 38.6531 -82.3844 174° South 402 463 34,000  Level Indianapolis Center
04:35PM 38.5464 -82.3714 175° South 392 451 34,000  Level Indianapolis Center
04:36PM 38.4408 -82.3569 174° South 384 442 34,000  Level Indianapolis Center
04:37PM 38.3367 -82.3431 174° South 380 437 34,000  Level Indianapolis Center
04:38PM 38.2314 -82.3308 175° South 380 437 34,000  Level Indianapolis Center
04:39PM 38.1050 -82.3125 173° South 381 438 34,000  Level Indianapolis Center
04:40PM 38.0042 -82.2997 174° South 381 438 34,000  Level Indianapolis Center
04:41PM 37.8992 -82.2872 175° South 377 434 34,000  Level Indianapolis Center
04:42PM 37.7953 -82.2739 174° South 375 432 34,000 60 Level Indianapolis Center
04:43PM 37.6908 -82.2600 174° South 375 432 34,200 840 Climbing Indianapolis Center
04:45PM 37.5731 -82.2436 174° South 367 422 35,800 840 Climbing Indianapolis Center
04:46PM 37.4742 -82.2322 175° South 358 412 36,000 60 Climbing Indianapolis Center
04:47PM 37.3708 -82.2183 174° South 368 423 36,000  Level Indianapolis Center
04:48PM 37.2647 -82.2047 174° South 376 433 36,000  Level Indianapolis Center
04:49PM 37.1572 -82.1903 174° South 384 442 36,000  Level Indianapolis Center
04:50PM 37.0492 -82.1767 174° South 385 443 36,000  Level Indianapolis Center
04:51PM 36.9400 -82.1631 174° South 388 447 36,000  Level Indianapolis Center
04:52PM 36.8308 -82.1500 175° South 391 450 36,000  Level Indianapolis Center
04:53PM 36.7217 -82.1356 174° South 392 451 36,000  Level Indianapolis Center
04:54PM 36.5931 -82.1194 174° South 394 453 36,000  Level Indianapolis Center
04:55PM 36.4819 -82.1050 174° South 397 457 36,000  Level Indianapolis Center
04:56PM 36.3711 -82.0917 174° South 398 458 36,000  Level Indianapolis Center
04:57PM 36.2608 -82.0772 174° South 396 456 36,000  Level Indianapolis Center
04:58PM 36.1511 -82.0642 175° South 394 453 36,000  Level Indianapolis Center
04:59PM 36.0433 -82.0511 174° South 390 449 36,000  Level Indianapolis Center
05:00PM 35.9064 -82.0364 175° South 390 449 36,000  Level Atlanta Center
05:01PM 35.7997 -82.0236 174° South 390 449 36,000  Level Atlanta Center
05:02PM 35.6911 -82.0111 175° South 390 449 36,000  Level Atlanta Center
05:03PM 35.5803 -81.9961 174° South 395 455 36,000  Level Atlanta Center
05:04PM 35.4675 -81.9861 176° South 402 463 36,000  Level Atlanta Center
05:05PM 35.3567 -81.9708 174° South 408 470 36,000  Level Atlanta Center
05:06PM 35.2417 -81.9561 174° South 408 470 36,000  Level Atlanta Center
05:07PM 35.1286 -81.9436 175° South 408 470 36,000  Level Atlanta Center
05:08PM 35.0158 -81.9339 176° South 408 470 36,000  Level Atlanta Center
05:09PM 34.9139 -81.9517 188° South 390 449 36,000  Level Atlanta Center
05:10PM 34.7994 -81.9697 187° South 384 442 36,000  Level Atlanta Center
05:11PM 34.6975 -81.9897 189° South 384 442 36,000  Level Atlanta Center
05:12PM 34.5975 -82.0050 187° South 379 436 36,000  Level Atlanta Center
05:13PM 34.4936 -82.0275 190° South 379 436 36,000  Level Atlanta Center
05:14PM 34.4000 -82.0425 188° South 379 436 36,000  Level Atlanta Center
05:15PM 34.2939 -82.0600 188° South 379 436 36,000  Level Atlanta Center
05:16PM 34.1897 -82.0775 188° South 384 442 36,000  Level Atlanta Center
05:17PM 34.0856 -82.0950 188° South 389 448 36,000  Level Atlanta Center
05:18PM 33.9794 -82.1125 188° South 389 448 36,000  Level Atlanta Center
05:19PM 33.8711 -82.1297 188° South 389 448 36,000  Level Atlanta Center
05:20PM 33.7547 -82.1525 189° South 389 448 36,000  Level Atlanta Center
05:21PM 33.6464 -82.1697 188° South 389 448 36,000  Level Atlanta Center
05:22PM 33.5403 -82.1869 188° South 389 448 36,000  Level Atlanta Center
05:23PM 33.4342 -82.2067 189° South 389 448 36,000  Level Atlanta Center
05:24PM 33.3258 -82.2239 188° South 389 448 36,000  Level Atlanta Center
05:25PM 33.2175 -82.2386 186° South 389 448 36,000  Level Atlanta Center
05:26PM 33.1092 -82.2583 189° South 389 448 36,000  Level Atlanta Center
05:27PM 33.0008 -82.2778 189° South 394 453 36,000  Level Atlanta Center
05:28PM 32.8906 -82.2947 187° South 394 453 36,000  Level Atlanta Center
05:29PM 32.7844 -82.3117 188° South 394 453 36,000 240 Level Atlanta Center
05:30PM 32.6761 -82.3239 185° South 399 459 36,500  Climbing Atlanta Center
05:31PM 32.5697 -82.3456 190° South 394 453 36,000 -180 Descending Atlanta Center
05:33PM 32.3450 -82.3811 188° South 388 447 36,000  Level Jacksonville Center
05:34PM 32.2303 -82.3964 186° South 402 463 36,000  Level Jacksonville Center
05:35PM 32.1175 -82.4167 189° South 415 478 36,000  Level Jacksonville Center
05:36PM 32.0069 -82.4344 188° South 410 472 36,000  Level Jacksonville Center
05:37PM 31.8944 -82.4522 188° South 410 472 36,000  Level Jacksonville Center
05:38PM 31.7794 -82.4697 187° South 410 472 36,000  Level Jacksonville Center
05:39PM 31.6628 -82.4875 187° South 410 472 36,000  Level Jacksonville Center
05:40PM 31.5481 -82.5050 187° South 410 472 36,000  Level Jacksonville Center
05:41PM 31.4311 -82.5128 183° South 420 483 36,000  Level Jacksonville Center
05:42PM 31.3244 -82.5228 185° South 425 489 36,000 -60 Level Jacksonville Center
05:43PM 31.2078 -82.5258 181° South 430 495 35,900  Descending Jacksonville Center
05:44PM 31.0928 -82.5311 182° South 424 488 36,000  Climbing Jacksonville Center
05:45PM 30.9758 -82.5364 182° South 419 482 36,000  Level Jacksonville Center
05:46PM 30.8611 -82.5417 182° South 419 482 36,000  Level Jacksonville Center
05:47PM 30.7464 -82.5469 182° South 419 482 36,000 -60 Level Jacksonville Center
05:48PM 30.6294 -82.5522 182° South 419 482 35,900  Descending Jacksonville Center
05:49PM 30.5125 -82.5550 181° South 419 482 36,000  Climbing Jacksonville Center
05:50PM 30.3956 -82.5336 171° South 424 488 36,000  Level Jacksonville Center
05:51PM 30.2764 -82.5053 168° South 429 494 36,000  Level Jacksonville Center
05:52PM 30.1553 -82.4794 170° South 435 501 36,000  Level Jacksonville Center
05:53PM 30.0361 -82.4558 170° South 435 501 36,000 -840 Level Jacksonville Center
05:54PM 29.9192 -82.4278 168° South 435 501 34,400 -1,800 Descending Jacksonville Center
06:00PM 29.2155 -82.3146 168° South 401 461 23,600 -1,920 Descending FlightAware ADS-B (KMCO)
06:02PM 29.0297 -82.2925 174° South 361 415 19,700 -1,920 Descending FlightAware ADS-B (KMCO)
06:07PM 28.5758 -82.2551 176° South 317 365 10,800 -1,500 Descending FlightAware ADS-B (KMCO)
06:08PM 28.4908 -82.2649 186° South 288 331 10,800  Level FlightAware ADS-B (KMCO)
06:09PM 28.4456 -82.2785 195° South 272 313 10,800 120 Level FlightAware ADS-B (KMCO)
06:09PM 28.4000 -82.3000 195° South 265 305 11,000 -420 Climbing Tampa TRACON
06:10PM 28.3167 -82.3167 190° South 270 311 10,100 -1,200 Descending Tampa TRACON
06:11PM 28.2500 -82.3333 192° South 265 305 8,600 -1,560 Descending Tampa TRACON
06:12PM 28.1833 -82.3667 204° Southwest 271 312 7,000 -1,500 Descending Tampa TRACON
06:13PM 28.1000 -82.3833 190° South 276 318 5,600 -1,020 Descending Tampa TRACON
06:14PM 28.0333 -82.4000 192° South 272 313 5,000 -300 Descending Tampa TRACON
06:15PM 27.9667 -82.4167 192° South 240 276 5,000  Level Tampa TRACON
06:16PM 27.9000 -82.4167 180° South 241 277 5,000 -300 Level Tampa TRACON
06:17PM 27.8333 -82.4333 192° South 229 264 4,500 -1,020 Descending Tampa TRACON
06:18PM 27.8000 -82.5000 241° Southwest 218 251 3,000 -960 Descending Tampa TRACON
06:19PM 27.8333 -82.5500 307° West 211 243 2,600 -420 Descending Tampa TRACON
06:20PM 27.8833 -82.5500 360° North 151 174 2,200 -840 Descending Tampa TRACON
06:21PM 27.9167 -82.5500 360° North 139 160 1,000 -1,200 Descending Tampa TRACON